Time;durP1;ratioP1;P1;durP2;ratioP2;P2;SDS_P1;SDS_P2;PMS_P1;PMS_P2;Temp;Humidity;BMP_temperature;BMP_pressure;BME280_temperature;BME280_humidity;BME280_pressure;Samples;Min_cycle;Max_cycle;Signal;HPM_P1;HPM_P2
2022/11/12 00:00:02;;;;;;;28.48;15.90;;;;;;;9.95;100.00;100052.25;5151731;27;20561;-51
2022/11/12 00:02:29;;;;;;;29.90;16.30;;;;;;;9.83;100.00;100074.97;5151425;27;20043;-49
2022/11/12 00:04:55;;;;;;;28.52;15.63;;;;;;;9.85;100.00;100060.91;5151519;27;20518;-49
2022/11/12 00:07:21;;;;;;;30.13;16.30;;;;;;;9.74;100.00;100052.31;5151407;27;20087;-48
2022/11/12 00:09:48;;;;;;;30.45;15.25;;;;;;;9.49;100.00;100039.69;5151133;27;20119;-49
2022/11/12 00:12:14;;;;;;;35.65;17.88;;;;;;;9.58;100.00;100004.81;5151325;27;20050;-48
2022/11/12 00:14:41;;;;;;;30.52;15.73;;;;;;;9.87;100.00;100004.66;5151306;27;20047;-48
2022/11/12 00:17:07;;;;;;;28.83;16.02;;;;;;;9.96;100.00;100026.47;5151375;27;20047;-50
2022/11/12 00:19:33;;;;;;;38.15;18.23;;;;;;;10.00;100.00;100021.94;5151320;27;20147;-48
2022/11/12 00:22:00;;;;;;;33.20;17.85;;;;;;;9.96;100.00;100036.63;5151096;27;20086;-48
2022/11/12 00:24:26;;;;;;;37.83;17.13;;;;;;;9.70;100.00;100032.25;5151560;27;20047;-48
2022/11/12 00:26:52;;;;;;;38.28;17.85;;;;;;;9.71;100.00;100009.19;5151304;27;20090;-47
2022/11/12 00:29:18;;;;;;;35.65;17.85;;;;;;;9.56;100.00;100007.91;5151013;27;20043;-48
2022/11/12 00:31:45;;;;;;;35.40;16.02;;;;;;;9.42;100.00;99999.97;5151160;27;20050;-48
2022/11/12 00:34:12;;;;;;;32.13;17.15;;;;;;;9.89;100.00;99983.19;5150992;27;20098;-49
2022/11/12 00:36:38;;;;;;;38.33;18.58;;;;;;;9.87;100.00;99996.44;5151001;27;20050;-47
2022/11/12 00:39:04;;;;;;;33.30;17.25;;;;;;;10.14;100.00;100003.22;5151333;27;20141;-48
2022/11/12 00:41:31;;;;;;;32.05;17.08;;;;;;;10.17;100.00;100044.78;5154557;27;20050;-49
2022/11/12 00:43:57;;;;;;;32.97;17.25;;;;;;;10.05;100.00;100073.75;5154779;27;20047;-48
2022/11/12 00:46:23;;;;;;;35.13;17.02;;;;;;;10.29;100.00;100091.41;5154369;27;20068;-48
2022/11/12 00:48:50;;;;;;;36.42;17.77;;;;;;;10.07;100.00;100115.31;5154833;27;20081;-49
2022/11/12 00:51:17;;;;;;;39.72;17.40;;;;;;;10.11;100.00;100104.47;5154414;27;20061;-48
2022/11/12 00:53:46;;;;;;;44.50;18.05;;;;;;;10.24;100.00;100111.59;5154728;27;20489;-47
2022/11/12 00:56:12;;;;;;;36.33;16.73;;;;;;;10.25;100.00;100137.03;5154373;27;20133;-49
2022/11/12 00:58:38;;;;;;;35.20;17.77;;;;;;;10.18;100.00;100134.06;5154774;27;20074;-48
2022/11/12 01:01:06;;;;;;;33.40;17.10;;;;;;;9.86;100.00;100133.72;5154261;27;20051;-48
2022/11/12 01:03:33;;;;;;;30.25;17.92;;;;;;;10.01;100.00;100099.44;5154457;27;20501;-52
2022/11/12 01:06:02;;;;;;;41.88;18.33;;;;;;;10.04;100.00;100093.28;5154275;27;20425;-48
2022/11/12 01:08:29;;;;;;;38.28;16.92;;;;;;;9.89;100.00;100075.53;5154034;27;20073;-51
2022/11/12 01:10:55;;;;;;;28.95;15.80;;;;;;;10.04;100.00;100079.56;5154216;27;20123;-50
2022/11/12 01:13:22;;;;;;;34.47;16.35;;;;;;;10.36;100.00;100094.38;5154265;27;20432;-52
2022/11/12 01:15:48;;;;;;;30.95;16.20;;;;;;;10.21;100.00;100095.81;5154166;27;20054;-50
2022/11/12 01:18:15;;;;;;;29.98;16.13;;;;;;;10.16;100.00;100101.50;5154022;27;20133;-49
2022/11/12 01:20:41;;;;;;;29.27;15.57;;;;;;;9.97;100.00;100106.72;5154287;27;20095;-47
2022/11/12 01:23:08;;;;;;;31.02;16.20;;;;;;;10.07;100.00;100098.88;5153919;27;20501;-47
2022/11/12 01:25:37;;;;;;;29.05;15.73;;;;;;;10.02;100.00;100099.06;5154095;27;20102;-50
2022/11/12 01:28:04;;;;;;;27.42;15.65;;;;;;;9.90;100.00;100091.63;5153876;27;20046;-48
2022/11/12 01:30:30;;;;;;;26.45;15.20;;;;;;;9.86;100.00;100071.53;5153832;27;20051;-50
2022/11/12 01:32:56;;;;;;;29.23;15.60;;;;;;;9.99;100.00;100072.34;5153914;27;20055;-51
2022/11/12 01:35:23;;;;;;;31.58;16.95;;;;;;;10.02;100.00;100071.69;5153666;27;20103;-50
2022/11/12 01:37:49;;;;;;;31.17;16.15;;;;;;;10.16;100.00;100067.81;5153609;27;20046;-48
2022/11/12 01:40:16;;;;;;;32.55;16.23;;;;;;;9.99;100.00;100080.56;5153647;27;20054;-49
2022/11/12 01:42:42;;;;;;;25.75;14.52;;;;;;;10.15;100.00;100064.28;5153976;27;20046;-48
2022/11/12 01:45:14;;;;;;;26.75;15.18;;;;;;;10.27;100.00;100083.53;5153825;27;20105;-48
2022/11/12 01:47:42;;;;;;;32.15;15.95;;;;;;;10.22;100.00;100085.66;5153881;27;20053;-50
2022/11/12 01:50:16;;;;;;;28.90;15.77;;;;;;;10.07;100.00;100070.69;5153195;27;20047;-48
2022/11/12 01:52:47;;;;;;;30.60;16.05;;;;;;;9.95;100.00;100051.47;5153681;27;20058;-48
2022/11/12 01:55:18;;;;;;;28.75;14.05;;;;;;;9.79;100.00;100043.88;5153387;27;20043;-49
2022/11/12 01:57:48;;;;;;;31.73;16.10;;;;;;;10.12;100.00;100045.78;5153944;27;20072;-48
2022/11/12 02:00:16;;;;;;;30.80;15.25;;;;;;;10.05;100.00;100046.34;5153473;27;20082;-48
2022/11/12 02:02:45;;;;;;;30.92;15.18;;;;;;;10.13;100.00;100045.47;5153236;27;20103;-48
2022/11/12 02:05:14;;;;;;;29.17;15.57;;;;;;;10.25;100.00;100044.66;5153426;27;20576;-48
2022/11/12 02:07:42;;;;;;;33.03;15.10;;;;;;;10.18;100.00;100046.38;5153412;27;20103;-49
2022/11/12 02:10:09;;;;;;;27.08;16.23;;;;;;;10.23;100.00;100046.97;5153055;27;20557;-48
2022/11/12 02:15:20;;;;;;;28.38;15.13;;;;;;;10.08;100.00;100058.56;5153471;27;20126;-49
2022/11/12 02:17:47;;;;;;;24.63;14.10;;;;;;;10.21;100.00;100060.19;5153056;27;20043;-48
2022/11/12 02:20:14;;;;;;;24.58;14.02;;;;;;;10.12;100.00;100052.06;5153058;27;20050;-49
2022/11/12 02:22:41;;;;;;;28.48;16.30;;;;;;;10.10;100.00;100042.59;5153055;27;20061;-48
2022/11/12 02:25:12;;;;;;;24.85;13.70;;;;;;;10.17;100.00;100034.63;5152998;27;20047;-47
2022/11/12 02:27:38;;;;;;;25.42;14.00;;;;;;;10.23;100.00;100035.19;5152930;27;20058;-50
2022/11/12 02:30:06;;;;;;;26.65;14.80;;;;;;;10.17;100.00;100023.66;5152776;27;20409;-48
2022/11/12 02:32:32;;;;;;;31.90;14.25;;;;;;;10.19;100.00;100031.53;5152924;27;20593;-49
2022/11/12 02:34:58;;;;;;;24.88;13.15;;;;;;;10.33;100.00;100035.59;5152711;27;20138;-50
2022/11/12 02:37:25;;;;;;;27.10;14.27;;;;;;;10.25;100.00;100050.16;5153028;27;20084;-48
2022/11/12 02:39:52;;;;;;;24.08;13.85;;;;;;;9.90;100.00;100028.63;5152703;27;20425;-50
2022/11/12 02:42:18;;;;;;;23.27;13.30;;;;;;;10.29;100.00;100033.84;5152972;27;20082;-50
2022/11/12 02:44:44;;;;;;;24.45;13.20;;;;;;;10.44;100.00;100043.34;5152635;27;20051;-49
2022/11/12 02:47:11;;;;;;;25.38;13.80;;;;;;;10.23;100.00;100046.97;5152546;27;20050;-50
2022/11/12 02:49:37;;;;;;;30.70;13.52;;;;;;;10.31;100.00;100040.59;5152761;27;20137;-48
2022/11/12 02:52:04;;;;;;;22.92;13.45;;;;;;;10.35;100.00;100060.69;5152552;27;20082;-49
2022/11/12 02:54:30;;;;;;;22.48;11.13;;;;;;;10.31;100.00;100062.53;5152557;27;20443;-49
2022/11/12 02:56:57;;;;;;;23.38;12.45;;;;;;;10.29;100.00;100053.81;5152725;27;20055;-51
2022/11/12 02:59:24;;;;;;;21.52;12.65;;;;;;;10.18;100.00;100047.16;5152575;27;20137;-49
2022/11/12 03:01:50;;;;;;;20.02;12.75;;;;;;;9.98;100.00;100026.13;5151794;27;20057;-48
2022/11/12 03:04:16;;;;;;;19.05;12.13;;;;;;;10.20;100.00;100012.03;5152248;27;20086;-49
2022/11/12 03:06:43;;;;;;;18.75;11.68;;;;;;;10.31;100.00;100007.72;5152299;27;20086;-48
2022/11/12 03:09:11;;;;;;;25.33;11.27;;;;;;;10.06;100.00;100012.34;5152628;27;20137;-50
2022/11/12 03:11:37;;;;;;;25.50;12.52;;;;;;;10.24;100.00;99988.28;5152177;27;20179;-48
2022/11/12 03:14:05;;;;;;;19.20;10.77;;;;;;;10.25;100.00;99998.06;5152456;27;20488;-47
2022/11/12 03:16:31;;;;;;;19.33;11.02;;;;;;;10.20;100.00;100001.06;5152332;27;20175;-47
2022/11/12 03:18:57;;;;;;;21.67;11.77;;;;;;;10.30;100.00;99991.63;5152069;27;20137;-48
2022/11/12 03:21:23;;;;;;;24.90;12.10;;;;;;;10.46;100.00;100006.25;5151966;27;20102;-48
2022/11/12 03:23:50;;;;;;;18.13;11.27;;;;;;;10.48;100.00;100030.56;5152219;27;20050;-50
2022/11/12 03:26:16;;;;;;;25.95;12.02;;;;;;;10.49;100.00;100034.88;5152331;27;20060;-47
2022/11/12 03:28:42;;;;;;;18.02;11.02;;;;;;;10.34;100.00;100019.94;5152126;27;20432;-50
2022/11/12 03:31:10;;;;;;;20.00;10.40;;;;;;;10.23;100.00;100002.28;5151769;27;20149;-48
2022/11/12 03:33:37;;;;;;;17.50;10.68;;;;;;;10.49;100.00;100002.78;5152158;27;20129;-47
2022/11/12 03:36:03;;;;;;;16.17;9.55;;;;;;;10.33;100.00;100004.63;5152168;27;20047;-52
2022/11/12 03:38:30;;;;;;;15.93;9.93;;;;;;;10.46;100.00;100010.91;5152193;27;20086;-50
2022/11/12 03:40:56;;;;;;;18.48;10.43;;;;;;;10.01;100.00;100006.28;5152023;27;20094;-50
2022/11/12 03:43:22;;;;;;;21.98;10.60;;;;;;;10.39;100.00;99989.53;5151926;27;20433;-48
2022/11/12 03:45:49;;;;;;;19.08;11.43;;;;;;;10.41;100.00;100009.19;5151603;27;20042;-50
2022/11/12 03:48:16;;;;;;;26.98;12.05;;;;;;;10.60;100.00;100011.38;5151749;27;20078;-47
2022/11/12 03:50:42;;;;;;;20.65;11.60;;;;;;;10.45;100.00;100029.28;5151769;27;20051;-50
2022/11/12 03:53:08;;;;;;;17.90;10.65;;;;;;;10.42;100.00;100023.69;5151613;27;20055;-48
2022/11/12 03:55:35;;;;;;;16.23;10.15;;;;;;;10.38;100.00;100003.59;5151764;27;20046;-47
2022/11/12 03:58:01;;;;;;;17.38;11.48;;;;;;;10.52;100.00;100010.31;5151813;27;20516;-47
2022/11/12 04:00:29;;;;;;;15.68;9.05;;;;;;;10.48;100.00;100033.28;5151703;27;20090;-49
2022/11/12 04:02:56;;;;;;;19.85;10.65;;;;;;;10.46;100.00;100035.56;5151822;27;20047;-49
2022/11/12 04:10:57;;;;;;;16.13;9.65;;;;;;;10.60;100.00;100041.53;5151459;27;20057;-48
2022/11/12 04:13:29;;;;;;;17.98;9.23;;;;;;;10.54;100.00;100038.22;5151594;27;20047;-49
2022/11/12 04:21:53;;;;;;;11.77;8.48;;;;;;;10.28;100.00;100022.09;5155177;27;20598;-48
2022/11/12 04:27:10;;;;;;;13.75;7.88;;;;;;;10.52;100.00;100040.47;5155140;27;20536;-48
2022/11/12 04:32:21;;;;;;;11.57;7.50;;;;;;;10.28;100.00;100044.00;5155046;27;20050;-51
2022/11/12 04:34:47;;;;;;;14.27;7.68;;;;;;;10.36;100.00;100012.16;5155268;27;20174;-50
2022/11/12 04:37:14;;;;;;;15.07;8.27;;;;;;;10.55;100.00;99997.88;5154754;27;20130;-51
2022/11/12 04:39:40;;;;;;;10.00;7.15;;;;;;;10.40;100.00;100017.78;5154669;27;20527;-51
2022/11/12 04:45:02;;;;;;;10.98;7.28;;;;;;;10.14;100.00;100021.59;5154616;27;20066;-48
2022/11/12 04:47:31;;;;;;;13.52;7.10;;;;;;;10.31;100.00;100001.44;5154849;27;20046;-51
2022/11/12 04:49:58;;;;;;;13.15;7.35;;;;;;;10.62;100.00;99981.63;5154446;27;20046;-49
2022/11/12 04:52:26;;;;;;;11.40;6.65;;;;;;;10.48;100.00;99992.19;5154367;27;20051;-49
2022/11/12 04:54:53;;;;;;;10.73;6.28;;;;;;;10.55;100.00;99997.88;5154342;27;20051;-51
2022/11/12 04:57:19;;;;;;;14.73;6.55;;;;;;;10.46;100.00;99987.06;5154357;27;20042;-49
2022/11/12 04:59:46;;;;;;;12.85;7.25;;;;;;;10.64;100.00;100001.31;5154142;27;20149;-48
2022/11/12 05:02:12;;;;;;;9.43;6.30;;;;;;;10.83;100.00;100019.91;5154556;27;20536;-51
2022/11/12 05:04:39;;;;;;;10.23;6.65;;;;;;;10.50;100.00;100017.31;5154394;27;20050;-48
2022/11/12 05:07:05;;;;;;;9.63;6.53;;;;;;;10.68;100.00;100013.16;5154817;27;20841;-47
2022/11/12 05:09:32;;;;;;;9.40;6.30;;;;;;;10.71;100.00;100039.13;5154684;27;20104;-50
2022/11/12 05:11:58;;;;;;;10.48;6.50;;;;;;;10.92;100.00;100042.50;5154505;27;20524;-50
2022/11/12 05:14:25;;;;;;;7.43;5.55;;;;;;;10.42;100.00;100056.59;5154496;27;20133;-48
2022/11/12 05:16:51;;;;;;;11.90;6.78;;;;;;;10.72;100.00;100046.19;5154531;27;20046;-48
2022/11/12 05:19:18;;;;;;;9.82;5.82;;;;;;;10.77;100.00;100038.53;5154140;27;20086;-50
2022/11/12 05:24:28;;;;;;;;;;;;;;;10.78;100.00;100037.38;5154443;27;20432;-50
2022/11/12 05:26:55;;;;;;;8.25;4.82;;;;;;;10.69;100.00;100044.13;5153540;27;19966;-48
2022/11/12 05:29:21;;;;;;;9.93;5.35;;;;;;;10.65;100.00;100048.72;5153953;27;20053;-49
2022/11/12 05:31:48;;;;;;;11.40;5.22;;;;;;;10.83;100.00;100053.63;5153973;27;20076;-48
2022/11/12 05:34:15;;;;;;;7.82;4.97;;;;;;;10.54;100.00;100051.13;5153688;27;20051;-48
2022/11/12 05:36:41;;;;;;;7.78;5.22;;;;;;;11.03;100.00;100045.59;5154040;27;20492;-48
2022/11/12 05:39:07;;;;;;;10.27;5.25;;;;;;;11.12;100.00;100070.94;5153763;27;20042;-49
2022/11/12 05:41:34;;;;;;;7.47;4.68;;;;;;;10.94;100.00;100102.53;5154025;27;20059;-48
2022/11/12 05:44:01;;;;;;;7.45;4.55;;;;;;;10.67;100.00;100101.28;5153611;27;20053;-50
2022/11/12 05:46:27;;;;;;;6.90;4.28;;;;;;;10.92;100.00;100069.94;5153575;27;20043;-50
2022/11/12 05:48:53;;;;;;;6.55;4.05;;;;;;;10.81;100.00;100066.88;5153643;27;20050;-50
2022/11/12 05:51:19;;;;;;;5.40;3.95;;;;;;;10.74;100.00;100054.88;5153539;27;20424;-49
2022/11/12 05:53:46;;;;;;;6.93;4.28;;;;;;;11.02;100.00;100065.91;5153323;27;20051;-47
2022/11/12 05:56:12;;;;;;;5.97;4.13;;;;;;;10.90;100.00;100088.69;5153421;27;20449;-50
2022/11/12 05:58:38;;;;;;;5.35;3.70;;;;;;;10.97;100.00;100080.69;5153367;27;20129;-51
2022/11/12 06:01:06;;;;;;;11.13;4.43;;;;;;;11.06;100.00;100086.03;5153246;27;20054;-49
2022/11/12 06:03:32;;;;;;;5.65;3.50;;;;;;;10.64;100.00;100086.31;5153439;27;20513;-51
2022/11/12 06:05:59;;;;;;;8.30;3.92;;;;;;;10.96;100.00;100076.34;5153322;27;20054;-50
2022/11/12 06:08:25;;;;;;;5.35;3.33;;;;;;;10.97;100.00;100042.28;5153333;27;20055;-50
2022/11/12 06:10:52;;;;;;;7.28;3.80;;;;;;;11.19;100.00;100073.09;5153097;27;20491;-48
2022/11/12 06:13:19;;;;;;;4.32;3.70;;;;;;;11.16;100.00;100085.59;5153416;27;20053;-51
2022/11/12 06:15:45;;;;;;;8.60;4.30;;;;;;;10.81;100.00;100068.81;5152934;27;20046;-49
2022/11/12 06:18:12;;;;;;;5.07;3.45;;;;;;;11.06;100.00;100067.66;5153267;27;20141;-51
2022/11/12 06:20:38;;;;;;;4.35;3.25;;;;;;;11.13;100.00;100069.81;5152980;27;20536;-51
2022/11/12 06:23:05;;;;;;;6.28;3.70;;;;;;;11.09;100.00;100085.34;5152874;27;20125;-47
2022/11/12 06:25:31;;;;;;;4.00;3.30;;;;;;;10.94;100.00;100083.31;5153085;27;20047;-48
2022/11/12 06:27:58;;;;;;;6.55;4.03;;;;;;;10.88;100.00;100092.94;5152844;27;20509;-51
2022/11/12 06:30:24;;;;;;;4.18;2.95;;;;;;;10.99;100.00;100077.59;5152854;27;20183;-49
2022/11/12 06:32:51;;;;;;;7.82;3.60;;;;;;;10.88;100.00;100065.50;5153098;27;20047;-50
2022/11/12 06:35:19;;;;;;;4.32;3.45;;;;;;;10.93;100.00;100059.75;5153204;27;20054;-48
2022/11/12 06:37:46;;;;;;;4.40;3.00;;;;;;;11.21;100.00;100074.34;5151718;27;20134;-50
2022/11/12 06:40:13;;;;;;;4.25;3.08;;;;;;;10.96;100.00;100084.59;5152663;27;20050;-50
2022/11/12 06:42:39;;;;;;;6.28;3.42;;;;;;;11.07;100.00;100054.72;5152655;27;20137;-47
2022/11/12 06:45:06;;;;;;;4.50;3.08;;;;;;;11.03;100.00;100062.06;5152908;27;20050;-49
2022/11/12 06:47:33;;;;;;;4.80;3.25;;;;;;;11.24;100.00;100076.41;5152627;27;20050;-48
2022/11/12 06:49:59;;;;;;;4.18;3.17;;;;;;;11.24;100.00;100101.09;5152602;27;20467;-48
2022/11/12 06:52:26;;;;;;;8.15;3.90;;;;;;;10.96;100.00;100100.22;5152526;27;20492;-49
2022/11/12 06:54:52;;;;;;;5.03;3.10;;;;;;;11.08;100.00;100078.25;5152742;27;20604;-48
2022/11/12 06:57:19;;;;;;;3.15;2.85;;;;;;;10.65;100.00;100073.38;5152792;27;20137;-49
2022/11/12 06:59:45;;;;;;;3.55;2.70;;;;;;;10.82;100.00;100078.63;5152677;27;20110;-49
2022/11/12 07:02:12;;;;;;;3.42;2.90;;;;;;;11.08;100.00;100078.25;5152544;27;20046;-48
2022/11/12 07:04:38;;;;;;;5.03;3.80;;;;;;;11.13;100.00;100077.22;5152241;27;20645;-49
2022/11/12 07:07:04;;;;;;;5.35;3.47;;;;;;;11.14;100.00;100084.31;5152412;27;20134;-49
2022/11/12 07:09:31;;;;;;;9.07;3.38;;;;;;;10.95;100.00;100084.91;5152136;27;20050;-50
2022/11/12 07:11:57;;;;;;;4.32;2.63;;;;;;;11.03;100.00;100051.06;5152210;27;20153;-49
2022/11/12 07:14:23;;;;;;;4.40;2.80;;;;;;;11.24;100.00;100062.69;5151969;27;20056;-49
2022/11/12 07:16:50;;;;;;;3.72;2.67;;;;;;;11.14;100.00;100076.09;5152141;27;20047;-49
2022/11/12 07:19:16;;;;;;;3.72;3.00;;;;;;;11.04;100.00;100072.66;5151841;27;20053;-49
2022/11/12 07:21:42;;;;;;;6.25;3.20;;;;;;;10.95;100.00;100076.69;5152275;27;20055;-48
2022/11/12 07:24:09;;;;;;;5.65;2.67;;;;;;;11.22;100.00;100069.66;5151861;27;20150;-50
2022/11/12 07:26:36;;;;;;;10.52;2.92;;;;;;;11.03;100.00;100070.28;5151906;27;20137;-51
2022/11/12 07:29:02;;;;;;;4.47;3.17;;;;;;;11.15;100.00;100064.75;5151941;27;20051;-51
2022/11/12 07:31:28;;;;;;;5.70;3.35;;;;;;;11.18;100.00;100088.75;5151786;27;20099;-49
2022/11/12 07:33:55;;;;;;;16.27;3.72;;;;;;;11.00;100.00;100101.94;5152084;27;20133;-48
2022/11/12 07:36:21;;;;;;;10.77;5.25;;;;;;;11.00;100.00;100093.72;5151928;27;20057;-51
2022/11/12 07:38:52;;;;;;;8.57;3.65;;;;;;;10.95;100.00;100091.19;5152097;27;20476;-48
2022/11/12 07:41:20;;;;;;;13.00;5.68;;;;;;;11.21;100.00;100090.03;5151696;27;20069;-50
2022/11/12 07:43:49;;;;;;;13.60;6.18;;;;;;;11.32;100.00;100102.09;5151603;27;20137;-48
2022/11/12 07:46:18;;;;;;;6.68;3.22;;;;;;;11.12;100.00;100103.88;5151531;27;20077;-48
2022/11/12 07:48:45;;;;;;;8.85;4.35;;;;;;;11.39;100.00;100101.53;5151400;27;20053;-48
2022/11/12 07:51:13;;;;;;;10.85;4.80;;;;;;;11.13;100.00;100101.91;5151302;27;20134;-49
2022/11/12 07:53:40;;;;;;;18.02;6.60;;;;;;;11.12;100.00;100075.63;5151685;27;20043;-48
2022/11/12 07:56:06;;;;;;;10.57;4.32;;;;;;;11.09;100.00;100077.09;5151746;27;20084;-50
2022/11/12 07:58:33;;;;;;;12.60;4.50;;;;;;;11.05;100.00;100071.50;5151372;27;20137;-51
2022/11/12 08:01:08;;;;;;;9.65;5.72;;;;;;;11.19;100.00;100079.38;5151489;27;20050;-51
2022/11/12 08:03:35;;;;;;;5.95;2.80;;;;;;;11.11;100.00;100080.31;5151309;27;20085;-51
2022/11/12 08:06:01;;;;;;;8.57;3.92;;;;;;;11.28;100.00;100101.22;5151363;27;20049;-53
2022/11/12 08:08:28;;;;;;;6.25;4.05;;;;;;;11.01;100.00;100124.69;5151255;27;20097;-52
2022/11/12 08:10:55;;;;;;;6.30;4.05;;;;;;;11.15;100.00;100114.16;5151252;27;20047;-53
2022/11/12 08:13:22;;;;;;;8.07;3.72;;;;;;;11.12;100.00;100128.56;5151025;27;20561;-50
2022/11/12 08:15:48;;;;;;;6.25;3.95;;;;;;;11.41;100.00;100132.19;5151272;27;20079;-54
2022/11/12 08:18:15;;;;;;;5.40;3.40;;;;;;;11.45;100.00;100149.56;5151332;27;20545;-49
2022/11/12 08:20:42;;;;;;;5.80;4.10;;;;;;;11.50;100.00;100174.06;5151210;27;20047;-53
2022/11/12 08:23:08;;;;;;;9.77;4.63;;;;;;;11.20;100.00;100193.53;5151488;27;20212;-51
2022/11/12 08:25:35;;;;;;;11.07;5.53;;;;;;;11.22;100.00;100165.72;5151076;27;20047;-51
2022/11/12 08:28:01;;;;;;;17.20;5.82;;;;;;;11.35;100.00;100155.53;5151347;27;20497;-53
2022/11/12 08:30:28;;;;;;;12.98;5.05;;;;;;;11.53;100.00;100187.09;5151094;27;20047;-51
2022/11/12 08:32:57;;;;;;;8.75;3.60;;;;;;;11.50;100.00;100201.50;5151112;27;20137;-53
2022/11/12 08:35:24;;;;;;;7.10;4.10;;;;;;;11.77;100.00;100225.47;5151015;27;20051;-49
2022/11/12 08:37:50;;;;;;;8.70;4.10;;;;;;;11.80;100.00;100250.66;5151076;27;20146;-49
2022/11/12 08:40:17;;;;;;;10.00;5.28;;;;;;;11.42;100.00;100260.06;5150952;27;20082;-49
2022/11/12 08:42:43;;;;;;;9.07;4.65;;;;;;;11.43;100.00;100251.50;5150851;27;20137;-50
2022/11/12 08:45:10;;;;;;;14.07;4.57;;;;;;;11.29;100.00;100242.81;5150920;27;20046;-50
2022/11/12 08:47:36;;;;;;;8.98;4.50;;;;;;;11.23;100.00;100247.75;5150790;27;20046;-53
2022/11/12 08:50:03;;;;;;;10.05;4.50;;;;;;;11.28;100.00;100244.75;5151158;27;20085;-50
2022/11/12 08:52:30;;;;;;;9.20;3.67;;;;;;;11.40;100.00;100254.94;5150825;27;20050;-49
2022/11/12 08:54:56;;;;;;;12.60;4.00;;;;;;;11.61;100.00;100268.53;5151222;27;20103;-50
2022/11/12 08:57:23;;;;;;;4.28;3.50;;;;;;;11.29;100.00;100260.06;5150994;27;20464;-50
2022/11/12 08:59:49;;;;;;;6.32;3.17;;;;;;;11.37;100.00;100271.31;5151213;27;20082;-51
2022/11/12 09:02:15;;;;;;;6.97;3.40;;;;;;;11.58;100.00;100280.22;5154206;27;20581;-48
2022/11/12 09:04:41;;;;;;;6.95;3.33;;;;;;;11.66;100.00;100278.47;5154422;27;20466;-49
2022/11/12 09:07:08;;;;;;;8.70;3.30;;;;;;;11.48;100.00;100277.94;5154156;27;20557;-51
2022/11/12 09:09:35;;;;;;;6.57;3.28;;;;;;;11.63;100.00;100285.47;5154036;27;20188;-49
2022/11/12 09:12:01;;;;;;;7.88;3.72;;;;;;;11.61;100.00;100296.00;5153927;27;20047;-49
2022/11/12 09:14:27;;;;;;;17.45;7.90;;;;;;;11.60;100.00;100299.91;5154232;27;20134;-48
2022/11/12 09:16:54;;;;;;;7.47;3.45;;;;;;;11.72;100.00;100304.56;5154192;27;20051;-48
2022/11/12 09:19:20;;;;;;;38.88;12.30;;;;;;;11.61;100.00;100300.69;5153927;27;20051;-50
2022/11/12 09:21:47;;;;;;;13.40;5.57;;;;;;;11.53;100.00;100316.16;5154190;27;20501;-50
2022/11/12 09:24:13;;;;;;;5.43;3.30;;;;;;;11.78;100.00;100304.00;5153797;27;20133;-51
2022/11/12 09:26:40;;;;;;;6.47;3.28;;;;;;;11.89;100.00;100301.59;5154113;27;20086;-47
2022/11/12 09:29:06;;;;;;;24.52;7.38;;;;;;;11.50;100.00;100300.38;5153826;27;20050;-51
2022/11/12 09:31:32;;;;;;;13.05;4.68;;;;;;;11.40;100.00;100298.88;5153923;27;20051;-51
2022/11/12 09:33:59;;;;;;;9.77;3.97;;;;;;;11.77;100.00;100301.59;5153822;27;20095;-56
2022/11/12 09:36:25;;;;;;;15.43;4.85;;;;;;;11.97;100.00;100297.94;5153752;27;20043;-51
2022/11/12 09:38:51;;;;;;;11.52;3.58;;;;;;;11.80;100.00;100306.41;5153444;27;20501;-52
2022/11/12 09:41:23;;;;;;;4.65;3.60;;;;;;;11.85;100.00;100303.44;5153660;27;20493;-52
2022/11/12 09:43:52;;;;;;;5.63;3.38;;;;;;;11.67;100.00;100311.13;5153634;27;20046;-52
2022/11/12 09:46:28;;;;;;;4.65;2.78;;;;;;;11.63;100.00;100315.69;5153530;27;20046;-52
2022/11/12 09:49:00;;;;;;;15.07;6.90;;;;;;;11.87;100.00;100314.09;5153800;27;20179;-52
2022/11/12 09:51:31;;;;;;;9.05;3.78;;;;;;;11.97;100.00;100311.69;5153324;27;20421;-53
2022/11/12 09:53:59;;;;;;;7.07;2.90;;;;;;;11.98;100.00;100299.53;5153662;27;20141;-51
2022/11/12 09:56:27;;;;;;;5.22;2.92;;;;;;;11.97;100.00;100314.44;5153417;27;20078;-51
2022/11/12 09:58:54;;;;;;;4.18;2.78;;;;;;;11.77;100.00;100312.59;5153424;27;20129;-53
2022/11/12 10:01:29;;;;;;;5.32;2.97;;;;;;;12.00;100.00;100319.25;5153189;27;20137;-51
2022/11/12 10:04:06;;;;;;;15.50;6.38;;;;;;;11.74;100.00;100313.28;5153151;27;20053;-53
2022/11/12 10:06:39;;;;;;;14.00;4.60;;;;;;;12.04;100.00;100311.09;5153273;27;20051;-52
2022/11/12 10:09:13;;;;;;;9.13;3.10;;;;;;;12.10;100.00;100303.41;5153491;27;20065;-47
2022/11/12 10:17:55;;;;;;;8.13;3.00;;;;;;;11.74;100.00;100297.59;5152093;27;20138;-49
2022/11/12 10:20:29;;;;;;;11.13;3.85;;;;;;;11.92;100.00;100300.13;5153242;27;20058;-49
2022/11/12 10:23:09;;;;;;;4.07;2.28;;;;;;;11.99;100.00;100287.38;5152961;27;20138;-51
2022/11/12 10:25:37;;;;;;;8.18;2.90;;;;;;;12.16;100.00;100283.59;5153393;27;20638;-49
2022/11/12 10:28:15;;;;;;;8.75;3.22;;;;;;;11.94;100.00;100304.13;5152908;27;20501;-49
2022/11/12 10:30:43;;;;;;;10.90;3.73;;;;;;;11.97;100.00;100308.13;5152804;27;20046;-49
2022/11/12 10:33:13;;;;;;;5.88;3.00;;;;;;;11.78;100.00;100301.25;5152786;27;20251;-49
2022/11/12 10:35:39;;;;;;;4.18;1.95;;;;;;;12.05;100.00;100300.91;5153010;27;20047;-49
2022/11/12 10:38:11;;;;;;;5.93;2.60;;;;;;;11.73;100.00;100298.75;5153018;27;20151;-48
2022/11/12 10:40:39;;;;;;;4.72;2.47;;;;;;;11.72;100.00;100307.31;5152827;27;20630;-48
2022/11/12 10:43:20;;;;;;;5.55;2.70;;;;;;;11.60;100.00;100296.38;5152977;27;20050;-52
2022/11/12 10:45:49;;;;;;;9.32;2.80;;;;;;;12.16;100.00;100305.59;5152521;27;20078;-48
2022/11/12 10:48:23;;;;;;;7.07;2.78;;;;;;;12.00;100.00;100279.97;5152855;27;20047;-48
2022/11/12 10:50:50;;;;;;;9.68;2.33;;;;;;;11.77;100.00;100279.63;5152315;27;20080;-52
2022/11/12 10:53:32;;;;;;;5.65;2.38;;;;;;;12.15;100.00;100264.69;5152381;27;20056;-50
2022/11/12 10:55:59;;;;;;;8.45;3.90;;;;;;;11.85;100.00;100266.94;5152373;27;20053;-50
2022/11/12 10:58:25;;;;;;;6.95;3.47;;;;;;;11.93;100.00;100268.75;5152384;27;20517;-52
2022/11/12 11:00:56;;;;;;;5.30;2.50;;;;;;;12.09;100.00;100266.88;5152358;27;20083;-50
2022/11/12 11:03:24;;;;;;;8.27;2.30;;;;;;;12.23;100.00;100250.81;5152456;27;20100;-52
2022/11/12 11:05:54;;;;;;;4.75;2.85;;;;;;;12.18;100.00;100250.25;5152735;27;20172;-51
2022/11/12 11:08:38;;;;;;;4.80;2.33;;;;;;;12.09;100.00;100242.13;5152196;27;20081;-50
2022/11/12 11:11:17;;;;;;;;;;;;;;;12.08;100.00;100253.47;5153197;27;20375;-52
2022/11/12 11:13:45;;;;;;;5.50;2.28;;;;;;;11.99;100.00;100237.91;5152204;27;19923;-50
2022/11/12 11:16:15;;;;;;;5.60;2.72;;;;;;;11.99;100.00;100251.66;5152127;27;20501;-48
2022/11/12 11:18:46;;;;;;;4.95;2.45;;;;;;;11.89;100.00;100274.13;5152489;27;20110;-49
2022/11/12 11:21:29;;;;;;;2.90;2.10;;;;;;;12.07;100.00;100269.19;5152162;27;20138;-50
2022/11/12 11:24:03;;;;;;;2.88;2.13;;;;;;;11.82;100.00;100260.16;5151643;27;20055;-49
2022/11/12 11:26:33;;;;;;;;;;;;;;;11.81;100.00;100255.00;5152539;27;20061;-53
2022/11/12 11:29:18;;;;;;;5.97;2.47;;;;;;;11.97;100.00;100261.41;5152174;27;20346;-48
2022/11/12 11:31:54;;;;;;;4.40;1.83;;;;;;;11.89;100.00;100246.66;5151989;27;20083;-50
2022/11/12 11:34:32;;;;;;;2.47;2.03;;;;;;;11.92;100.00;100253.41;5151943;27;20078;-49
2022/11/12 11:37:07;;;;;;;2.38;1.80;;;;;;;11.96;100.00;100248.81;5152317;27;20046;-51
2022/11/12 11:39:43;;;;;;;2.92;1.88;;;;;;;11.87;100.00;100254.44;5151627;27;20050;-49
2022/11/12 11:42:25;;;;;;;2.58;1.95;;;;;;;12.16;100.00;100255.28;5151903;27;20493;-49
2022/11/12 11:44:57;;;;;;;5.25;2.67;;;;;;;11.89;100.00;100226.63;5151625;27;20094;-49